< < Back
Terminal Aerodrome Forecast


Current Version              Previous Versions:   1  2  3  4  5  6  7  8  9  

Terminal Aerodrome Forecast

041
FTUS42 KJAX 021100
TAFGNV
TAF
KGNV 021120Z 0212/0312 VRB02KT P6SM FEW020 SCT250
     FM021500 08005KT P6SM SCT035 SCT250
     FM021800 10007KT P6SM VCTS SCT040CB BKN250
      TEMPO 0218/0222 VRB15G25KT 3SM TSRA BKN035CB
     FM030100 10003KT P6SM FEW050 SCT100 BKN250=



Latest METAR

312
SAUS70 KWBC 021700 RRA
MTRGNV
METAR KGNV 021653Z 10004KT 10SM BKN040 31/23 A3009 RMK AO2 SLP186
T03110228


USA.gov is the U.S. government's official web portal to all federal, state and local government web resources and services.